createdAt,value
2023-01-21T08:29:19.703Z,98757.00
2023-01-21T08:35:30.669Z,98761.00
2023-01-21T08:47:02.851Z,98772.00
2023-01-21T08:53:11.920Z,98795.00
2023-01-21T08:59:27.211Z,98793.00
2023-01-21T09:05:34.498Z,98804.00
2023-01-21T09:11:43.157Z,98794.00
2023-01-21T09:17:50.862Z,98800.00
2023-01-21T09:23:58.412Z,98800.00
2023-01-21T09:29:54.898Z,98797.00
2023-01-21T09:36:07.604Z,98805.00
2023-01-21T09:42:25.229Z,98801.00
2023-01-21T09:48:47.661Z,98812.00
2023-01-21T09:54:57.576Z,98820.00
2023-01-21T10:01:27.739Z,98810.00
2023-01-21T10:05:06.670Z,98795.00
2023-01-21T10:08:00.132Z,98802.00
2023-01-21T10:10:37.640Z,98807.00
2023-01-21T10:14:14.293Z,98804.00
2023-01-21T10:17:43.024Z,98808.00
2023-01-21T10:20:34.317Z,98806.00
2023-01-21T10:23:43.543Z,98801.00
2023-01-21T10:26:17.241Z,98817.00
2023-01-21T10:28:54.069Z,98809.00
2023-01-21T10:31:39.219Z,98812.00
2023-01-21T10:34:19.470Z,98818.00
2023-01-21T10:37:11.363Z,98814.00
2023-01-21T10:40:17.384Z,98815.00
2023-01-21T10:43:07.070Z,98817.00
2023-01-21T10:46:31.394Z,98810.00
2023-01-21T10:50:24.260Z,98801.00
2023-01-21T10:53:44.267Z,98793.00
2023-01-21T10:57:06.505Z,98809.00
2023-01-21T10:59:38.148Z,98807.00
2023-01-21T11:02:30.267Z,98801.00
2023-01-21T11:05:11.367Z,98806.00
2023-01-21T11:07:42.437Z,98806.00
2023-01-21T11:10:19.354Z,98802.00
2023-01-21T11:12:48.003Z,98797.00
2023-01-21T11:15:20.430Z,98799.00
2023-01-21T11:17:59.636Z,98791.00
2023-01-21T11:20:41.691Z,98798.00
2023-01-21T11:23:32.060Z,98792.00
2023-01-21T11:26:21.211Z,98788.00
2023-01-21T11:28:48.596Z,98773.00
2023-01-21T11:31:27.397Z,98798.00
2023-01-21T11:34:03.317Z,98774.00
2023-01-21T11:36:31.045Z,98799.00
2023-01-21T11:39:14.225Z,98795.00
2023-01-21T11:41:57.958Z,98771.00
2023-01-21T11:44:25.946Z,98788.00
2023-01-21T11:46:53.569Z,98769.00
2023-01-21T11:49:31.452Z,98774.00
2023-01-21T11:52:20.070Z,98764.00
2023-01-21T11:54:48.476Z,98754.00
2023-01-21T11:57:32.846Z,98752.00
2023-01-21T12:00:20.084Z,98751.00
2023-01-21T12:03:00.644Z,98757.00
2023-01-21T12:05:40.836Z,98747.00
2023-01-21T12:08:21.705Z,98771.00
2023-01-21T12:10:51.292Z,98766.00
2023-01-21T12:13:40.648Z,98764.00
2023-01-21T12:16:49.512Z,98764.00
2023-01-21T12:19:45.595Z,98753.00
2023-01-21T12:23:36.277Z,98747.00
2023-01-21T12:26:48.047Z,98754.00
2023-01-21T12:30:11.980Z,98755.00
2023-01-21T12:32:51.579Z,98750.00
2023-01-21T12:35:56.028Z,98753.00
2023-01-21T12:38:34.829Z,98753.00
2023-01-21T12:41:26.444Z,98741.00
2023-01-21T12:44:50.471Z,98735.00
2023-01-21T12:47:44.012Z,98733.00
2023-01-21T12:50:36.018Z,98725.00
2023-01-21T12:53:50.511Z,98738.00
2023-01-21T12:56:50.660Z,98739.00
2023-01-21T12:59:42.553Z,98718.00
2023-01-21T13:02:35.680Z,98724.00
2023-01-21T13:06:18.103Z,98731.00
2023-01-21T13:09:19.519Z,98730.00
2023-01-21T13:11:58.128Z,98722.00
2023-01-21T13:15:04.113Z,98731.00
2023-01-21T13:17:38.312Z,98731.00
2023-01-21T13:20:22.702Z,98731.00
2023-01-21T13:24:01.487Z,98724.00
2023-01-21T13:27:22.643Z,98728.00
2023-01-21T13:30:10.674Z,98733.00
2023-01-21T13:32:52.690Z,98732.00
2023-01-21T13:35:55.496Z,98732.00
2023-01-21T13:38:49.984Z,98740.00
2023-01-21T13:42:22.513Z,98754.00
2023-01-21T13:45:42.996Z,98766.00
2023-01-21T13:48:44.923Z,98767.00
2023-01-21T13:52:01.461Z,98777.00
2023-01-21T13:54:52.880Z,98762.00
2023-01-21T13:58:30.349Z,98757.00
2023-01-21T14:01:26.205Z,98761.00
2023-01-21T14:04:15.596Z,98765.00
2023-01-21T14:06:57.588Z,98766.00
2023-01-21T14:09:49.694Z,98766.00
2023-01-21T14:13:29.273Z,98766.00
2023-01-21T14:16:36.131Z,98769.00
2023-01-21T14:19:44.759Z,98777.00
2023-01-21T14:24:02.869Z,98771.00
2023-01-21T14:27:25.255Z,98781.00
2023-01-21T14:30:24.473Z,98786.00
2023-01-21T14:33:06.932Z,98785.00
2023-01-21T14:36:15.523Z,98786.00
2023-01-21T14:39:19.931Z,98793.00
2023-01-21T14:42:17.609Z,98810.00
2023-01-21T14:45:08.311Z,98811.00
2023-01-21T14:47:35.400Z,98810.00
2023-01-21T14:50:03.066Z,98811.00
2023-01-21T14:52:45.748Z,98811.00
2023-01-21T14:55:32.979Z,98820.00
2023-01-21T14:58:01.850Z,98815.00
2023-01-21T15:00:34.820Z,98826.00
2023-01-21T15:03:28.435Z,98828.00
2023-01-21T15:06:08.003Z,98823.00
2023-01-21T15:08:46.383Z,98834.00
2023-01-21T15:11:41.113Z,98840.00
2023-01-21T15:14:33.400Z,98843.00
2023-01-21T15:17:01.064Z,98852.00
2023-01-21T15:19:37.460Z,98846.00
2023-01-21T15:22:37.681Z,98853.00
2023-01-21T15:25:31.777Z,98859.00
2023-01-21T15:28:57.654Z,98864.00
2023-01-21T15:31:45.125Z,98850.00
2023-01-21T15:34:18.421Z,98873.00
2023-01-21T15:36:57.321Z,98869.00
2023-01-21T15:39:34.512Z,98887.00
2023-01-21T15:42:44.343Z,98883.00
2023-01-21T15:45:41.070Z,98886.00
2023-01-21T15:48:42.728Z,98892.00
2023-01-21T15:51:31.549Z,98902.00
2023-01-21T15:54:49.058Z,98898.00
2023-01-21T15:58:06.275Z,98898.00
2023-01-21T16:01:01.838Z,98902.00
2023-01-21T16:04:12.532Z,98895.00
2023-01-21T16:07:32.826Z,98901.00
2023-01-21T16:10:45.189Z,98901.00
2023-01-21T16:13:49.688Z,98908.00
2023-01-21T16:16:47.209Z,98903.00
2023-01-21T16:19:35.054Z,98904.00
2023-01-21T16:22:07.664Z,98912.00
2023-01-21T16:24:48.557Z,98921.00
2023-01-21T16:27:24.841Z,98929.00
2023-01-21T16:30:35.220Z,98911.00
2023-01-21T16:33:15.359Z,98907.00
2023-01-21T16:36:01.023Z,98914.00
2023-01-21T16:38:32.557Z,98919.00
2023-01-21T16:41:08.567Z,98920.00
2023-01-21T16:43:58.535Z,98922.00
2023-01-21T16:46:40.299Z,98923.00
2023-01-21T16:49:17.103Z,98921.00
2023-01-21T16:52:01.884Z,98914.00
2023-01-21T16:54:33.349Z,98931.00
2023-01-21T16:57:25.731Z,98919.00
2023-01-21T16:59:55.841Z,98927.00
2023-01-21T17:02:32.147Z,98940.00
2023-01-21T17:05:05.152Z,98927.00
2023-01-21T17:07:46.918Z,98925.00
2023-01-21T17:10:29.539Z,98933.00
2023-01-21T17:13:04.688Z,98939.00
2023-01-21T17:16:09.444Z,98941.00
2023-01-21T17:18:52.118Z,98944.00
2023-01-21T17:21:44.223Z,98942.00
2023-01-21T17:24:38.521Z,98952.00
2023-01-21T17:27:18.179Z,98949.00
2023-01-21T17:29:45.593Z,98954.00
2023-01-21T17:32:33.547Z,98961.00
2023-01-21T17:35:16.111Z,98959.00
